SWR98P LSZH-LEMG
Flight info
| Callsign | SWR98P |
|---|---|
| Flight time | 2h 20m |
| Altitude | 33000 |
| Route | VEBIT T50 ROTOS Z669 ULMES DCT VADAR DCT NINTU/N0456F350 DCT MEBAK DCT REPSI DCT LERGA DCT MINSO DCT NARAK DCT AGN DCT MAQAB DCT TIVLI DCT ELSAP DCT ZAR/N0454F370 DCT EXEMU DCT PISUS DCT EDIMU DCT ADUXO DCT NUSGO DCT OBIBO DCT NASOS DCT ANZAN DCT BLN |
| Aircraft | A320/M-SDE3FGHIRWY/LB1 |
Departure
| Time | 2026-05-06 14:55 |
|---|---|
| Airport | Zürich Airport (LSZH) |
Arrival
| Time | 2026-05-06 17:16 |
|---|---|
| Airport | Málaga-Costa del Sol Airport (LEMG) |
| Time | Latitude | Longitude | Altitude | Speed | Heading |
|---|---|---|---|---|---|
| 2026-05-06 14:28 | 47.45410 | 8.56062 | 1407 ft | 0 kts | 185° |
| 2026-05-06 14:46 | 47.45422 | 8.56063 | 1415 ft | 4 kts | 181° |
| 2026-05-06 14:46 | 47.45448 | 8.56061 | 1412 ft | 4 kts | 167° |
| 2026-05-06 14:47 | 47.45473 | 8.56048 | 1415 ft | 4 kts | 144° |
| 2026-05-06 14:47 | 47.45489 | 8.56022 | 1414 ft | 2 kts | 97° |
| 2026-05-06 14:47 | 47.45489 | 8.56020 | 1414 ft | 0 kts | 95° |
| 2026-05-06 14:49 | 47.45486 | 8.56069 | 1411 ft | 6 kts | 94° |
| 2026-05-06 14:49 | 47.45482 | 8.56134 | 1407 ft | 6 kts | 96° |
| 2026-05-06 14:50 | 47.45479 | 8.56178 | 1407 ft | 6 kts | 96° |
| 2026-05-06 14:50 | 47.45488 | 8.56234 | 1408 ft | 5 kts | 66° |
| 2026-05-06 14:50 | 47.45505 | 8.56261 | 1413 ft | 3 kts | 47° |
| 2026-05-06 14:50 | 47.45541 | 8.56326 | 1412 ft | 12 kts | 52° |
| 2026-05-06 14:51 | 47.45595 | 8.56461 | 1414 ft | 17 kts | 89° |
| 2026-05-06 14:51 | 47.45580 | 8.56652 | 1420 ft | 20 kts | 96° |
| 2026-05-06 14:51 | 47.45568 | 8.56867 | 1420 ft | 20 kts | 94° |
| 2026-05-06 14:51 | 47.45578 | 8.56993 | 1422 ft | 0 kts | 52° |
| 2026-05-06 14:53 | 47.45600 | 8.57016 | 1424 ft | 9 kts | 21° |
| 2026-05-06 14:53 | 47.45665 | 8.57009 | 1425 ft | 10 kts | 311° |
| 2026-05-06 14:54 | 47.45666 | 8.56950 | 1424 ft | 0 kts | 272° |
| 2026-05-06 14:54 | 47.45667 | 8.56939 | 1424 ft | 7 kts | 275° |
| 2026-05-06 14:54 | 47.45695 | 8.56533 | 1416 ft | 75 kts | 276° |
| 2026-05-06 14:54 | 47.45771 | 8.55459 | 1401 ft | 133 kts | 274° |
| 2026-05-06 14:55 | 47.45873 | 8.53951 | 1740 ft | 148 kts | 272° |
| 2026-05-06 14:55 | 47.45980 | 8.52460 | 2487 ft | 145 kts | 273° |
| 2026-05-06 14:55 | 47.46082 | 8.50981 | 3153 ft | 145 kts | 273° |
| 2026-05-06 14:55 | 47.46186 | 8.49530 | 3793 ft | 140 kts | 272° |
| 2026-05-06 14:56 | 47.46200 | 8.48148 | 4426 ft | 128 kts | 253° |
| 2026-05-06 14:56 | 47.45818 | 8.47026 | 4915 ft | 125 kts | 235° |
| 2026-05-06 14:56 | 47.45188 | 8.46023 | 5187 ft | 140 kts | 223° |
| 2026-05-06 14:56 | 47.44376 | 8.45242 | 5632 ft | 144 kts | 208° |
| 2026-05-06 14:57 | 47.43467 | 8.44410 | 5716 ft | 168 kts | 233° |
| 2026-05-06 14:57 | 47.42769 | 8.42900 | 5848 ft | 189 kts | 238° |
| 2026-05-06 14:57 | 47.41995 | 8.41182 | 6033 ft | 214 kts | 237° |
| 2026-05-06 14:57 | 47.41115 | 8.39255 | 6380 ft | 238 kts | 237° |
| 2026-05-06 14:58 | 47.40151 | 8.37168 | 6862 ft | 251 kts | 236° |
| 2026-05-06 14:58 | 47.39151 | 8.35020 | 7599 ft | 256 kts | 237° |
| 2026-05-06 14:58 | 47.38290 | 8.32711 | 8428 ft | 258 kts | 242° |
| 2026-05-06 14:58 | 47.37458 | 8.30352 | 9231 ft | 261 kts | 242° |
| 2026-05-06 14:59 | 47.36610 | 8.27970 | 9979 ft | 264 kts | 242° |
| 2026-05-06 14:59 | 47.35730 | 8.25506 | 10343 ft | 282 kts | 242° |
| 2026-05-06 14:59 | 47.34776 | 8.22839 | 10495 ft | 305 kts | 242° |
| 2026-05-06 14:59 | 47.33760 | 8.19992 | 10826 ft | 320 kts | 242° |
| 2026-05-06 15:00 | 47.32716 | 8.17062 | 11477 ft | 325 kts | 242° |
| 2026-05-06 15:00 | 47.31660 | 8.14093 | 12120 ft | 330 kts | 242° |
| 2026-05-06 15:00 | 47.30592 | 8.11082 | 12780 ft | 334 kts | 242° |
| 2026-05-06 15:00 | 47.29507 | 8.08032 | 13436 ft | 338 kts | 242° |
| 2026-05-06 15:01 | 47.28409 | 8.04943 | 14026 ft | 342 kts | 241° |
| 2026-05-06 15:01 | 47.27297 | 8.01824 | 14600 ft | 346 kts | 241° |
| 2026-05-06 15:01 | 47.26292 | 7.98582 | 15186 ft | 350 kts | 246° |
| 2026-05-06 15:01 | 47.25366 | 7.95252 | 15757 ft | 354 kts | 246° |
| 2026-05-06 15:02 | 47.24428 | 7.91888 | 16332 ft | 357 kts | 246° |
| 2026-05-06 15:02 | 47.23479 | 7.88494 | 16891 ft | 360 kts | 245° |
| 2026-05-06 15:02 | 47.22519 | 7.85072 | 17488 ft | 363 kts | 245° |
| 2026-05-06 15:02 | 47.21547 | 7.81621 | 18055 ft | 367 kts | 245° |
| 2026-05-06 15:03 | 47.20567 | 7.78141 | 18563 ft | 370 kts | 245° |
| 2026-05-06 15:03 | 47.19573 | 7.74632 | 19052 ft | 373 kts | 244° |
| 2026-05-06 15:03 | 47.18311 | 7.71311 | 19557 ft | 373 kts | 233° |
| 2026-05-06 15:03 | 47.16719 | 7.68288 | 20061 ft | 375 kts | 230° |
| 2026-05-06 15:04 | 47.15089 | 7.65277 | 20567 ft | 378 kts | 230° |
| 2026-05-06 15:04 | 47.13444 | 7.62241 | 21048 ft | 381 kts | 230° |
| 2026-05-06 15:04 | 47.11788 | 7.59188 | 21528 ft | 384 kts | 230° |
| 2026-05-06 15:04 | 47.10117 | 7.56104 | 21994 ft | 387 kts | 230° |
| 2026-05-06 15:05 | 47.08439 | 7.53005 | 22454 ft | 390 kts | 230° |
| 2026-05-06 15:05 | 47.06746 | 7.49874 | 22900 ft | 393 kts | 230° |
| 2026-05-06 15:05 | 47.05043 | 7.46722 | 23330 ft | 396 kts | 230° |
| 2026-05-06 15:05 | 47.03326 | 7.43553 | 23742 ft | 398 kts | 230° |
| 2026-05-06 15:06 | 47.01619 | 7.40413 | 24110 ft | 400 kts | 230° |
| 2026-05-06 15:06 | 46.99877 | 7.37223 | 24490 ft | 401 kts | 230° |
| 2026-05-06 15:06 | 46.98127 | 7.34034 | 24865 ft | 403 kts | 230° |
| 2026-05-06 15:06 | 46.96345 | 7.30795 | 25259 ft | 403 kts | 230° |
| 2026-05-06 15:07 | 46.94607 | 7.27635 | 25619 ft | 404 kts | 230° |
| 2026-05-06 15:07 | 46.92842 | 7.24423 | 25978 ft | 406 kts | 230° |
| 2026-05-06 15:07 | 46.91074 | 7.21197 | 26327 ft | 407 kts | 230° |
| 2026-05-06 15:07 | 46.89301 | 7.17962 | 26666 ft | 408 kts | 229° |
| 2026-05-06 15:08 | 46.87521 | 7.14721 | 27000 ft | 410 kts | 229° |
| 2026-05-06 15:08 | 46.85733 | 7.11474 | 27329 ft | 411 kts | 229° |
| 2026-05-06 15:08 | 46.83937 | 7.08212 | 27644 ft | 412 kts | 229° |
| 2026-05-06 15:08 | 46.82139 | 7.04948 | 27949 ft | 414 kts | 229° |
| 2026-05-06 15:09 | 46.80331 | 7.01672 | 28248 ft | 415 kts | 229° |
| 2026-05-06 15:09 | 46.78517 | 6.98388 | 28526 ft | 417 kts | 229° |
| 2026-05-06 15:09 | 46.76695 | 6.95093 | 28793 ft | 418 kts | 229° |
| 2026-05-06 15:09 | 46.74863 | 6.91786 | 29054 ft | 420 kts | 229° |
| 2026-05-06 15:10 | 46.73022 | 6.88473 | 29303 ft | 421 kts | 229° |
| 2026-05-06 15:10 | 46.71173 | 6.85150 | 29540 ft | 423 kts | 229° |
| 2026-05-06 15:10 | 46.69317 | 6.81816 | 29778 ft | 424 kts | 229° |
| 2026-05-06 15:10 | 46.67455 | 6.78476 | 30002 ft | 425 kts | 230° |
| 2026-05-06 15:11 | 46.65635 | 6.75081 | 30276 ft | 425 kts | 234° |
| 2026-05-06 15:11 | 46.64071 | 6.71431 | 30542 ft | 425 kts | 237° |
| 2026-05-06 15:11 | 46.62540 | 6.67748 | 30800 ft | 425 kts | 237° |
| 2026-05-06 15:11 | 46.61013 | 6.64080 | 31056 ft | 424 kts | 237° |
| 2026-05-06 15:12 | 46.59484 | 6.60414 | 31308 ft | 424 kts | 237° |
| 2026-05-06 15:12 | 46.57955 | 6.56751 | 31577 ft | 423 kts | 237° |
| 2026-05-06 15:12 | 46.56429 | 6.53101 | 31841 ft | 423 kts | 237° |
| 2026-05-06 15:12 | 46.54899 | 6.49449 | 32104 ft | 422 kts | 237° |
| 2026-05-06 15:13 | 46.53372 | 6.45811 | 32360 ft | 422 kts | 237° |
| 2026-05-06 15:13 | 46.51842 | 6.42177 | 32601 ft | 422 kts | 237° |
| 2026-05-06 15:13 | 46.50311 | 6.38540 | 32842 ft | 422 kts | 237° |
| 2026-05-06 15:14 | 46.47265 | 6.31304 | 32936 ft | 419 kts | 237° |
| 2026-05-06 15:14 | 46.44245 | 6.24160 | 32939 ft | 418 kts | 237° |
| 2026-05-06 15:15 | 46.41196 | 6.16973 | 32943 ft | 419 kts | 237° |
| 2026-05-06 15:15 | 46.38140 | 6.09783 | 32945 ft | 419 kts | 237° |
| 2026-05-06 15:16 | 46.35074 | 6.02592 | 32947 ft | 420 kts | 237° |
| 2026-05-06 15:16 | 46.32000 | 5.95412 | 32944 ft | 420 kts | 237° |
| 2026-05-06 15:17 | 46.28927 | 5.88232 | 32938 ft | 420 kts | 237° |
| 2026-05-06 15:17 | 46.25846 | 5.81043 | 32935 ft | 421 kts | 237° |
| 2026-05-06 15:18 | 46.22755 | 5.73855 | 32930 ft | 421 kts | 237° |
| 2026-05-06 15:18 | 46.19650 | 5.66675 | 32927 ft | 422 kts | 237° |
| 2026-05-06 15:19 | 46.16536 | 5.59493 | 32925 ft | 422 kts | 237° |
| 2026-05-06 15:19 | 46.13383 | 5.52335 | 33033 ft | 425 kts | 236° |
| 2026-05-06 15:19 | 46.11725 | 5.48806 | 33264 ft | 425 kts | 234° |
| 2026-05-06 15:20 | 46.10031 | 5.45310 | 33536 ft | 425 kts | 234° |
| 2026-05-06 15:20 | 46.08327 | 5.41843 | 33817 ft | 424 kts | 234° |
| 2026-05-06 15:20 | 46.06624 | 5.38380 | 34048 ft | 424 kts | 234° |
| 2026-05-06 15:20 | 46.04926 | 5.34907 | 34269 ft | 424 kts | 234° |
| 2026-05-06 15:21 | 46.03242 | 5.31433 | 34470 ft | 423 kts | 234° |
| 2026-05-06 15:21 | 46.01564 | 5.27953 | 34665 ft | 423 kts | 234° |
| 2026-05-06 15:21 | 45.99888 | 5.24470 | 34855 ft | 424 kts | 234° |
| 2026-05-06 15:22 | 45.96555 | 5.17549 | 34926 ft | 424 kts | 234° |
| 2026-05-06 15:22 | 45.93190 | 5.10600 | 34927 ft | 423 kts | 234° |
| 2026-05-06 15:23 | 45.89819 | 5.03679 | 34924 ft | 423 kts | 234° |
| 2026-05-06 15:23 | 45.86456 | 4.96768 | 34924 ft | 422 kts | 234° |
| 2026-05-06 15:24 | 45.83088 | 4.89871 | 34920 ft | 422 kts | 234° |
| 2026-05-06 15:24 | 45.79709 | 4.82992 | 34927 ft | 422 kts | 234° |
| 2026-05-06 15:25 | 45.76332 | 4.76125 | 34922 ft | 421 kts | 234° |
| 2026-05-06 15:25 | 45.72960 | 4.69274 | 34921 ft | 421 kts | 234° |
| 2026-05-06 15:26 | 45.69583 | 4.62427 | 34920 ft | 421 kts | 234° |
| 2026-05-06 15:26 | 45.66208 | 4.55589 | 34908 ft | 421 kts | 234° |
| 2026-05-06 15:27 | 45.62829 | 4.48753 | 34901 ft | 421 kts | 234° |
| 2026-05-06 15:27 | 45.59442 | 4.41929 | 34894 ft | 421 kts | 234° |
| 2026-05-06 15:28 | 45.56038 | 4.35118 | 34891 ft | 421 kts | 234° |
| 2026-05-06 15:28 | 45.52632 | 4.28312 | 34891 ft | 421 kts | 234° |
| 2026-05-06 15:29 | 45.49251 | 4.21553 | 34886 ft | 421 kts | 234° |
| 2026-05-06 15:29 | 45.45842 | 4.14761 | 34891 ft | 422 kts | 234° |
| 2026-05-06 15:30 | 45.42425 | 4.07969 | 34894 ft | 422 kts | 234° |
| 2026-05-06 15:30 | 45.39005 | 4.01180 | 34900 ft | 422 kts | 234° |
| 2026-05-06 15:31 | 45.35571 | 3.94407 | 34903 ft | 422 kts | 234° |
| 2026-05-06 15:31 | 45.32140 | 3.87638 | 34913 ft | 422 kts | 234° |
| 2026-05-06 15:32 | 45.26993 | 3.77487 | 34918 ft | 422 kts | 234° |
| 2026-05-06 15:32 | 45.23572 | 3.70724 | 34915 ft | 422 kts | 235° |
| 2026-05-06 15:33 | 45.20221 | 3.63893 | 34920 ft | 422 kts | 235° |
| 2026-05-06 15:33 | 45.16882 | 3.57055 | 34918 ft | 422 kts | 235° |
| 2026-05-06 15:34 | 45.13528 | 3.50251 | 34915 ft | 421 kts | 235° |
| 2026-05-06 15:34 | 45.10158 | 3.43461 | 34909 ft | 421 kts | 235° |
| 2026-05-06 15:35 | 45.06783 | 3.36681 | 34904 ft | 421 kts | 235° |
| 2026-05-06 15:35 | 45.03402 | 3.29906 | 34900 ft | 422 kts | 235° |
| 2026-05-06 15:36 | 45.00021 | 3.23129 | 34898 ft | 422 kts | 235° |
| 2026-05-06 15:36 | 44.96636 | 3.16365 | 34904 ft | 422 kts | 235° |
| 2026-05-06 15:37 | 44.93815 | 3.10744 | 34907 ft | 422 kts | 235° |
| 2026-05-06 15:37 | 44.90415 | 3.03992 | 34905 ft | 422 kts | 235° |
| 2026-05-06 15:38 | 44.87011 | 2.97235 | 34909 ft | 422 kts | 235° |
| 2026-05-06 15:38 | 44.83629 | 2.90467 | 34918 ft | 422 kts | 236° |
| 2026-05-06 15:39 | 44.80418 | 2.83539 | 34921 ft | 423 kts | 238° |
| 2026-05-06 15:39 | 44.77278 | 2.76545 | 34924 ft | 423 kts | 238° |
| 2026-05-06 15:40 | 44.74101 | 2.69579 | 34928 ft | 423 kts | 237° |
| 2026-05-06 15:40 | 44.70884 | 2.62649 | 34929 ft | 423 kts | 237° |
| 2026-05-06 15:41 | 44.67658 | 2.55731 | 34931 ft | 423 kts | 237° |
| 2026-05-06 15:41 | 44.64428 | 2.48815 | 34934 ft | 423 kts | 237° |
| 2026-05-06 15:42 | 44.61201 | 2.41904 | 34934 ft | 423 kts | 237° |
| 2026-05-06 15:42 | 44.57997 | 2.35038 | 34931 ft | 424 kts | 237° |
| 2026-05-06 15:43 | 44.54761 | 2.28131 | 34932 ft | 424 kts | 237° |
| 2026-05-06 15:43 | 44.51516 | 2.21235 | 34930 ft | 424 kts | 237° |
| 2026-05-06 15:44 | 44.48267 | 2.14347 | 34931 ft | 424 kts | 237° |
| 2026-05-06 15:44 | 44.45014 | 2.07459 | 34924 ft | 424 kts | 237° |
| 2026-05-06 15:45 | 44.41759 | 2.00581 | 34927 ft | 424 kts | 237° |
| 2026-05-06 15:45 | 44.38500 | 1.93713 | 34928 ft | 424 kts | 237° |
| 2026-05-06 15:46 | 44.35237 | 1.86869 | 34925 ft | 423 kts | 237° |
| 2026-05-06 15:46 | 44.31974 | 1.80031 | 34920 ft | 423 kts | 237° |
| 2026-05-06 15:47 | 44.28717 | 1.73197 | 34918 ft | 423 kts | 237° |
| 2026-05-06 15:47 | 44.25535 | 1.66299 | 34922 ft | 423 kts | 238° |
| 2026-05-06 15:48 | 44.22387 | 1.59374 | 34923 ft | 423 kts | 238° |
| 2026-05-06 15:48 | 44.19223 | 1.52466 | 34928 ft | 423 kts | 238° |
| 2026-05-06 15:49 | 44.16040 | 1.45574 | 34928 ft | 423 kts | 238° |
| 2026-05-06 15:49 | 44.12850 | 1.38687 | 34921 ft | 423 kts | 238° |
| 2026-05-06 15:50 | 44.09658 | 1.31805 | 34928 ft | 423 kts | 238° |
| 2026-05-06 15:50 | 44.06459 | 1.24927 | 34925 ft | 423 kts | 238° |
| 2026-05-06 15:51 | 44.03271 | 1.18106 | 34930 ft | 423 kts | 238° |
| 2026-05-06 15:51 | 44.00057 | 1.11245 | 34929 ft | 424 kts | 238° |
| 2026-05-06 15:52 | 43.96847 | 1.04385 | 34928 ft | 424 kts | 238° |
| 2026-05-06 15:52 | 43.93630 | 0.97534 | 34933 ft | 424 kts | 238° |
| 2026-05-06 15:53 | 43.90405 | 0.90690 | 34933 ft | 424 kts | 238° |
| 2026-05-06 15:53 | 43.86571 | 0.84498 | 34935 ft | 426 kts | 224° |
| 2026-05-06 15:54 | 43.82140 | 0.79035 | 34942 ft | 427 kts | 224° |
| 2026-05-06 15:54 | 43.77709 | 0.73576 | 34940 ft | 427 kts | 224° |
| 2026-05-06 15:55 | 43.73277 | 0.68115 | 34940 ft | 426 kts | 224° |
| 2026-05-06 15:55 | 43.68853 | 0.62661 | 34948 ft | 426 kts | 224° |
| 2026-05-06 15:56 | 43.64420 | 0.57221 | 34950 ft | 426 kts | 224° |
| 2026-05-06 15:56 | 43.59989 | 0.51794 | 34953 ft | 426 kts | 224° |
| 2026-05-06 15:57 | 43.55563 | 0.46374 | 34958 ft | 426 kts | 224° |
| 2026-05-06 15:57 | 43.51155 | 0.41003 | 34966 ft | 426 kts | 224° |
| 2026-05-06 15:58 | 43.46716 | 0.35619 | 34966 ft | 425 kts | 224° |
| 2026-05-06 15:58 | 43.42285 | 0.30240 | 34972 ft | 425 kts | 224° |
| 2026-05-06 15:59 | 43.37861 | 0.24861 | 34980 ft | 424 kts | 224° |
| 2026-05-06 15:59 | 43.33429 | 0.19503 | 34982 ft | 424 kts | 224° |
| 2026-05-06 16:00 | 43.28993 | 0.14161 | 34981 ft | 424 kts | 224° |
| 2026-05-06 16:00 | 43.24563 | 0.08827 | 34984 ft | 424 kts | 224° |
| 2026-05-06 16:01 | 43.20129 | 0.03498 | 34987 ft | 424 kts | 224° |
| 2026-05-06 16:01 | 43.15694 | -0.01822 | 34990 ft | 423 kts | 224° |
| 2026-05-06 16:02 | 43.11265 | -0.07132 | 34989 ft | 423 kts | 224° |
| 2026-05-06 16:02 | 43.06832 | -0.12432 | 34986 ft | 423 kts | 224° |
| 2026-05-06 16:03 | 43.02395 | -0.17711 | 34985 ft | 423 kts | 224° |
| 2026-05-06 16:03 | 42.97986 | -0.22955 | 34983 ft | 423 kts | 224° |
| 2026-05-06 16:04 | 42.93554 | -0.28217 | 34978 ft | 422 kts | 224° |
| 2026-05-06 16:04 | 42.89119 | -0.33476 | 34976 ft | 422 kts | 224° |
| 2026-05-06 16:05 | 42.84688 | -0.38710 | 34975 ft | 422 kts | 224° |
| 2026-05-06 16:05 | 42.80060 | -0.43613 | 34969 ft | 425 kts | 213° |
| 2026-05-06 16:06 | 42.74591 | -0.46782 | 34965 ft | 429 kts | 205° |
| 2026-05-06 16:06 | 42.69029 | -0.49704 | 34955 ft | 428 kts | 205° |
| 2026-05-06 16:07 | 42.63479 | -0.52634 | 34946 ft | 427 kts | 205° |
| 2026-05-06 16:07 | 42.57930 | -0.55541 | 34941 ft | 427 kts | 205° |
| 2026-05-06 16:08 | 42.52391 | -0.58437 | 34938 ft | 427 kts | 205° |
| 2026-05-06 16:08 | 42.46852 | -0.61337 | 34931 ft | 426 kts | 206° |
| 2026-05-06 16:09 | 42.41319 | -0.64225 | 34929 ft | 426 kts | 205° |
| 2026-05-06 16:09 | 42.35787 | -0.67100 | 34928 ft | 426 kts | 205° |
| 2026-05-06 16:10 | 42.30256 | -0.69978 | 34929 ft | 426 kts | 205° |
| 2026-05-06 16:10 | 42.24767 | -0.72831 | 34927 ft | 425 kts | 205° |
| 2026-05-06 16:11 | 42.19239 | -0.75693 | 34931 ft | 425 kts | 205° |
| 2026-05-06 16:11 | 42.13716 | -0.78543 | 34926 ft | 425 kts | 205° |
| 2026-05-06 16:12 | 42.08192 | -0.81387 | 34931 ft | 425 kts | 205° |
| 2026-05-06 16:12 | 42.02672 | -0.84227 | 34934 ft | 425 kts | 205° |
| 2026-05-06 16:13 | 41.97154 | -0.87058 | 34935 ft | 424 kts | 205° |
| 2026-05-06 16:13 | 41.91642 | -0.89882 | 34934 ft | 424 kts | 205° |
| 2026-05-06 16:14 | 41.86125 | -0.92709 | 34942 ft | 424 kts | 205° |
| 2026-05-06 16:14 | 41.80619 | -0.95524 | 34936 ft | 424 kts | 205° |
| 2026-05-06 16:15 | 41.75112 | -0.98333 | 34942 ft | 423 kts | 205° |
| 2026-05-06 16:15 | 41.69611 | -1.01138 | 34940 ft | 423 kts | 205° |
| 2026-05-06 16:16 | 41.64319 | -1.04436 | 35080 ft | 417 kts | 217° |
| 2026-05-06 16:16 | 41.61940 | -1.06639 | 35279 ft | 416 kts | 218° |
| 2026-05-06 16:16 | 41.59594 | -1.08817 | 35459 ft | 416 kts | 218° |
| 2026-05-06 16:17 | 41.57212 | -1.11011 | 35643 ft | 416 kts | 218° |
| 2026-05-06 16:17 | 41.54791 | -1.13226 | 35828 ft | 416 kts | 218° |
| 2026-05-06 16:17 | 41.52433 | -1.15372 | 36012 ft | 416 kts | 218° |
| 2026-05-06 16:17 | 41.50042 | -1.17547 | 36195 ft | 416 kts | 218° |
| 2026-05-06 16:18 | 41.47653 | -1.19722 | 36370 ft | 416 kts | 218° |
| 2026-05-06 16:18 | 41.45266 | -1.21901 | 36536 ft | 416 kts | 218° |
| 2026-05-06 16:18 | 41.42883 | -1.24080 | 36702 ft | 416 kts | 218° |
| 2026-05-06 16:18 | 41.40497 | -1.26260 | 36876 ft | 415 kts | 218° |
| 2026-05-06 16:19 | 41.35729 | -1.30611 | 36947 ft | 416 kts | 218° |
| 2026-05-06 16:19 | 41.30960 | -1.34964 | 36948 ft | 416 kts | 218° |
| 2026-05-06 16:20 | 41.26182 | -1.39297 | 36947 ft | 415 kts | 218° |
| 2026-05-06 16:20 | 41.21412 | -1.43625 | 36945 ft | 415 kts | 218° |
| 2026-05-06 16:21 | 41.16641 | -1.47944 | 36944 ft | 415 kts | 218° |
| 2026-05-06 16:21 | 41.11873 | -1.52263 | 36945 ft | 415 kts | 218° |
| 2026-05-06 16:22 | 41.07104 | -1.56579 | 36944 ft | 415 kts | 218° |
| 2026-05-06 16:22 | 41.02339 | -1.60881 | 36944 ft | 415 kts | 218° |
| 2026-05-06 16:23 | 40.97569 | -1.65173 | 36942 ft | 414 kts | 218° |
| 2026-05-06 16:23 | 40.92793 | -1.69451 | 36945 ft | 415 kts | 218° |
| 2026-05-06 16:24 | 40.88019 | -1.73725 | 36941 ft | 414 kts | 218° |
| 2026-05-06 16:24 | 40.83245 | -1.77999 | 36950 ft | 414 kts | 218° |
| 2026-05-06 16:25 | 40.78471 | -1.82258 | 36947 ft | 414 kts | 218° |
| 2026-05-06 16:25 | 40.73734 | -1.86482 | 36936 ft | 414 kts | 218° |
| 2026-05-06 16:26 | 40.68966 | -1.90723 | 36938 ft | 413 kts | 218° |
| 2026-05-06 16:26 | 40.64199 | -1.94956 | 36945 ft | 413 kts | 218° |
| 2026-05-06 16:27 | 40.59431 | -1.99179 | 36941 ft | 413 kts | 218° |
| 2026-05-06 16:27 | 40.54667 | -2.03379 | 36939 ft | 412 kts | 218° |
| 2026-05-06 16:28 | 40.49904 | -2.07580 | 36935 ft | 412 kts | 218° |
| 2026-05-06 16:28 | 40.45149 | -2.11777 | 36941 ft | 412 kts | 218° |
| 2026-05-06 16:29 | 40.41164 | -2.15288 | 36929 ft | 412 kts | 218° |
| 2026-05-06 16:29 | 40.36410 | -2.19471 | 36932 ft | 412 kts | 218° |
| 2026-05-06 16:30 | 40.32456 | -2.22945 | 36929 ft | 411 kts | 218° |
| 2026-05-06 16:30 | 40.26936 | -2.27790 | 36928 ft | 411 kts | 218° |
| 2026-05-06 16:31 | 40.22181 | -2.31953 | 36928 ft | 411 kts | 218° |
| 2026-05-06 16:31 | 40.17424 | -2.36102 | 36926 ft | 411 kts | 218° |
| 2026-05-06 16:32 | 40.12668 | -2.40233 | 36930 ft | 410 kts | 218° |
| 2026-05-06 16:32 | 40.07921 | -2.44354 | 36925 ft | 410 kts | 218° |
| 2026-05-06 16:33 | 40.03182 | -2.48478 | 36929 ft | 409 kts | 218° |
| 2026-05-06 16:34 | 39.96077 | -2.54646 | 36930 ft | 409 kts | 218° |
| 2026-05-06 16:34 | 39.91334 | -2.58737 | 36931 ft | 409 kts | 218° |
| 2026-05-06 16:35 | 39.86593 | -2.62826 | 36928 ft | 408 kts | 218° |
| 2026-05-06 16:35 | 39.81860 | -2.66908 | 36928 ft | 408 kts | 219° |
| 2026-05-06 16:36 | 39.77125 | -2.70982 | 36919 ft | 408 kts | 218° |
| 2026-05-06 16:36 | 39.72387 | -2.75049 | 36919 ft | 408 kts | 218° |
| 2026-05-06 16:37 | 39.67656 | -2.79107 | 36914 ft | 408 kts | 219° |
| 2026-05-06 16:37 | 39.62929 | -2.83163 | 36915 ft | 407 kts | 218° |
| 2026-05-06 16:38 | 39.58196 | -2.87207 | 36919 ft | 407 kts | 218° |
| 2026-05-06 16:38 | 39.53464 | -2.91240 | 36912 ft | 407 kts | 219° |
| 2026-05-06 16:39 | 39.48731 | -2.95273 | 36908 ft | 407 kts | 219° |
| 2026-05-06 16:39 | 39.44003 | -2.99296 | 36908 ft | 407 kts | 219° |
| 2026-05-06 16:40 | 39.39158 | -3.03106 | 36906 ft | 413 kts | 210° |
| 2026-05-06 16:40 | 39.33763 | -3.05785 | 36900 ft | 416 kts | 207° |
| 2026-05-06 16:41 | 39.28350 | -3.08412 | 36896 ft | 416 kts | 207° |
| 2026-05-06 16:41 | 39.22939 | -3.11042 | 36892 ft | 415 kts | 207° |
| 2026-05-06 16:42 | 39.17536 | -3.13671 | 36891 ft | 415 kts | 207° |
| 2026-05-06 16:42 | 39.12128 | -3.16285 | 36889 ft | 415 kts | 207° |
| 2026-05-06 16:43 | 39.06726 | -3.18886 | 36892 ft | 415 kts | 207° |
| 2026-05-06 16:43 | 39.01361 | -3.21476 | 36891 ft | 414 kts | 207° |
| 2026-05-06 16:44 | 38.95931 | -3.24099 | 36890 ft | 414 kts | 207° |
| 2026-05-06 16:44 | 38.90570 | -3.26680 | 36883 ft | 414 kts | 207° |
| 2026-05-06 16:45 | 38.85174 | -3.29274 | 36877 ft | 414 kts | 207° |
| 2026-05-06 16:45 | 38.79777 | -3.31856 | 36885 ft | 414 kts | 207° |
| 2026-05-06 16:46 | 38.74386 | -3.34433 | 36871 ft | 413 kts | 207° |
| 2026-05-06 16:46 | 38.69003 | -3.37013 | 36879 ft | 413 kts | 207° |
| 2026-05-06 16:47 | 38.63619 | -3.39580 | 36881 ft | 413 kts | 207° |
| 2026-05-06 16:47 | 38.58242 | -3.42138 | 36880 ft | 412 kts | 207° |
| 2026-05-06 16:48 | 38.52865 | -3.44692 | 36876 ft | 412 kts | 207° |
| 2026-05-06 16:48 | 38.47491 | -3.47242 | 36871 ft | 412 kts | 207° |
| 2026-05-06 16:49 | 38.42158 | -3.49774 | 36874 ft | 412 kts | 207° |
| 2026-05-06 16:49 | 38.36784 | -3.52318 | 36867 ft | 412 kts | 207° |
| 2026-05-06 16:50 | 38.31414 | -3.54855 | 36870 ft | 412 kts | 207° |
| 2026-05-06 16:50 | 38.26043 | -3.57388 | 36857 ft | 411 kts | 207° |
| 2026-05-06 16:51 | 38.20680 | -3.59915 | 36856 ft | 411 kts | 207° |
| 2026-05-06 16:51 | 38.15726 | -3.63254 | 36850 ft | 397 kts | 224° |
| 2026-05-06 16:52 | 38.12088 | -3.68367 | 36851 ft | 388 kts | 239° |
| 2026-05-06 16:52 | 38.09060 | -3.74042 | 36844 ft | 388 kts | 239° |
| 2026-05-06 16:53 | 38.06020 | -3.79720 | 36845 ft | 389 kts | 239° |
| 2026-05-06 16:53 | 38.02969 | -3.85390 | 36848 ft | 389 kts | 239° |
| 2026-05-06 16:54 | 37.99910 | -3.91061 | 36832 ft | 390 kts | 239° |
| 2026-05-06 16:54 | 37.98371 | -3.93912 | 36014 ft | 394 kts | 238° |
| 2026-05-06 16:54 | 37.96827 | -3.96774 | 35285 ft | 393 kts | 238° |
| 2026-05-06 16:54 | 37.95285 | -3.99635 | 34565 ft | 393 kts | 238° |
| 2026-05-06 16:55 | 37.93741 | -4.02492 | 33815 ft | 393 kts | 238° |
| 2026-05-06 16:55 | 37.92192 | -4.05350 | 32905 ft | 394 kts | 238° |
| 2026-05-06 16:55 | 37.90641 | -4.08210 | 32092 ft | 394 kts | 238° |
| 2026-05-06 16:55 | 37.89090 | -4.11073 | 31396 ft | 392 kts | 238° |
| 2026-05-06 16:56 | 37.87562 | -4.13887 | 30934 ft | 385 kts | 238° |
| 2026-05-06 16:56 | 37.86057 | -4.16657 | 30414 ft | 380 kts | 239° |
| 2026-05-06 16:56 | 37.84569 | -4.19398 | 29890 ft | 376 kts | 239° |
| 2026-05-06 16:56 | 37.83097 | -4.22108 | 29344 ft | 371 kts | 239° |
| 2026-05-06 16:57 | 37.81645 | -4.24778 | 28854 ft | 366 kts | 239° |
| 2026-05-06 16:57 | 37.80211 | -4.27409 | 28377 ft | 361 kts | 239° |
| 2026-05-06 16:57 | 37.78795 | -4.30003 | 27888 ft | 356 kts | 239° |
| 2026-05-06 16:57 | 37.77392 | -4.32564 | 27419 ft | 352 kts | 238° |
| 2026-05-06 16:58 | 37.76004 | -4.35097 | 26951 ft | 349 kts | 238° |
| 2026-05-06 16:58 | 37.74628 | -4.37607 | 26490 ft | 346 kts | 238° |
| 2026-05-06 16:58 | 37.73263 | -4.40103 | 26035 ft | 344 kts | 239° |
| 2026-05-06 16:58 | 37.71909 | -4.42579 | 25584 ft | 342 kts | 238° |
| 2026-05-06 16:59 | 37.70564 | -4.45044 | 25151 ft | 340 kts | 238° |
| 2026-05-06 16:59 | 37.69225 | -4.47500 | 24716 ft | 339 kts | 238° |
| 2026-05-06 16:59 | 37.67892 | -4.49943 | 24302 ft | 337 kts | 238° |
| 2026-05-06 16:59 | 37.66559 | -4.52374 | 23878 ft | 336 kts | 238° |
| 2026-05-06 17:00 | 37.65227 | -4.54796 | 23489 ft | 336 kts | 238° |
| 2026-05-06 17:00 | 37.63897 | -4.57207 | 23047 ft | 334 kts | 237° |
| 2026-05-06 17:00 | 37.62389 | -4.59452 | 22662 ft | 342 kts | 228° |
| 2026-05-06 17:00 | 37.60619 | -4.61577 | 22330 ft | 357 kts | 227° |
| 2026-05-06 17:01 | 37.58616 | -4.63466 | 21418 ft | 364 kts | 211° |
| 2026-05-06 17:01 | 37.56204 | -4.64514 | 20441 ft | 369 kts | 199° |
| 2026-05-06 17:01 | 37.53720 | -4.65308 | 19478 ft | 368 kts | 199° |
| 2026-05-06 17:01 | 37.51238 | -4.66077 | 18560 ft | 367 kts | 198° |
| 2026-05-06 17:02 | 37.48761 | -4.66838 | 17578 ft | 365 kts | 198° |
| 2026-05-06 17:02 | 37.46298 | -4.67602 | 16565 ft | 364 kts | 198° |
| 2026-05-06 17:02 | 37.43866 | -4.68363 | 15897 ft | 354 kts | 198° |
| 2026-05-06 17:02 | 37.41500 | -4.69105 | 15456 ft | 348 kts | 198° |
| 2026-05-06 17:03 | 37.39163 | -4.69840 | 15007 ft | 345 kts | 198° |
| 2026-05-06 17:03 | 37.36827 | -4.70581 | 14569 ft | 346 kts | 198° |
| 2026-05-06 17:03 | 37.34492 | -4.71324 | 14123 ft | 346 kts | 198° |
| 2026-05-06 17:03 | 37.32157 | -4.72063 | 13661 ft | 346 kts | 198° |
| 2026-05-06 17:04 | 37.29829 | -4.72798 | 13180 ft | 344 kts | 198° |
| 2026-05-06 17:04 | 37.27518 | -4.73524 | 12821 ft | 339 kts | 197° |
| 2026-05-06 17:04 | 37.25270 | -4.74227 | 12410 ft | 336 kts | 197° |
| 2026-05-06 17:04 | 37.23007 | -4.74937 | 11957 ft | 335 kts | 197° |
| 2026-05-06 17:05 | 37.20753 | -4.75643 | 11496 ft | 333 kts | 197° |
| 2026-05-06 17:05 | 37.18509 | -4.76345 | 11034 ft | 332 kts | 197° |
| 2026-05-06 17:05 | 37.16271 | -4.77047 | 10571 ft | 331 kts | 197° |
| 2026-05-06 17:05 | 37.14071 | -4.77735 | 10332 ft | 315 kts | 197° |
| 2026-05-06 17:06 | 37.12020 | -4.78371 | 10249 ft | 292 kts | 197° |
| 2026-05-06 17:06 | 37.10123 | -4.78958 | 10140 ft | 271 kts | 197° |
| 2026-05-06 17:06 | 37.08360 | -4.79505 | 10029 ft | 252 kts | 198° |
| 2026-05-06 17:06 | 37.06662 | -4.79991 | 9763 ft | 253 kts | 191° |
| 2026-05-06 17:07 | 37.04883 | -4.80072 | 9348 ft | 257 kts | 183° |
| 2026-05-06 17:07 | 37.03095 | -4.80049 | 8980 ft | 257 kts | 183° |
| 2026-05-06 17:07 | 37.01307 | -4.80027 | 8635 ft | 257 kts | 183° |
| 2026-05-06 17:07 | 36.99517 | -4.80008 | 8291 ft | 258 kts | 183° |
| 2026-05-06 17:08 | 36.97724 | -4.79990 | 7934 ft | 257 kts | 182° |
| 2026-05-06 17:08 | 36.95935 | -4.79972 | 7595 ft | 257 kts | 182° |
| 2026-05-06 17:08 | 36.94143 | -4.79949 | 7238 ft | 256 kts | 180° |
| 2026-05-06 17:08 | 36.92407 | -4.79595 | 6894 ft | 250 kts | 165° |
| 2026-05-06 17:09 | 36.90789 | -4.78894 | 6565 ft | 242 kts | 162° |
| 2026-05-06 17:09 | 36.89226 | -4.78207 | 6246 ft | 235 kts | 163° |
| 2026-05-06 17:09 | 36.87702 | -4.77542 | 5915 ft | 229 kts | 162° |
| 2026-05-06 17:09 | 36.86264 | -4.76765 | 5616 ft | 222 kts | 152° |
| 2026-05-06 17:10 | 36.84931 | -4.75858 | 5331 ft | 214 kts | 153° |
| 2026-05-06 17:10 | 36.83636 | -4.74986 | 5035 ft | 210 kts | 153° |
| 2026-05-06 17:10 | 36.82357 | -4.74127 | 4765 ft | 209 kts | 153° |
| 2026-05-06 17:10 | 36.81074 | -4.73264 | 4457 ft | 209 kts | 153° |
| 2026-05-06 17:11 | 36.79801 | -4.72410 | 4178 ft | 207 kts | 153° |
| 2026-05-06 17:11 | 36.78536 | -4.71559 | 3894 ft | 207 kts | 152° |
| 2026-05-06 17:11 | 36.77416 | -4.70451 | 3630 ft | 208 kts | 129° |
| 2026-05-06 17:11 | 36.76669 | -4.68909 | 3320 ft | 207 kts | 115° |
| 2026-05-06 17:12 | 36.76036 | -4.67356 | 3060 ft | 197 kts | 115° |
| 2026-05-06 17:12 | 36.75419 | -4.65862 | 2766 ft | 190 kts | 115° |
| 2026-05-06 17:12 | 36.74809 | -4.64392 | 2419 ft | 187 kts | 117° |
| 2026-05-06 17:12 | 36.74240 | -4.63028 | 2223 ft | 173 kts | 116° |
| 2026-05-06 17:13 | 36.73689 | -4.61713 | 1965 ft | 169 kts | 116° |
| 2026-05-06 17:13 | 36.73154 | -4.60435 | 1746 ft | 164 kts | 116° |
| 2026-05-06 17:13 | 36.72632 | -4.59189 | 1534 ft | 161 kts | 115° |
| 2026-05-06 17:13 | 36.72126 | -4.57987 | 1357 ft | 157 kts | 116° |
| 2026-05-06 17:14 | 36.71629 | -4.56798 | 1147 ft | 152 kts | 117° |
| 2026-05-06 17:14 | 36.71147 | -4.55647 | 959 ft | 147 kts | 117° |
| 2026-05-06 17:14 | 36.70679 | -4.54539 | 796 ft | 143 kts | 118° |
| 2026-05-06 17:14 | 36.70387 | -4.53821 | 648 ft | 139 kts | 118° |
| 2026-05-06 17:15 | 36.69946 | -4.52775 | 424 ft | 136 kts | 118° |
| 2026-05-06 17:15 | 36.69495 | -4.51712 | 246 ft | 139 kts | 118° |
| 2026-05-06 17:15 | 36.69047 | -4.50652 | 71 ft | 138 kts | 118° |
| 2026-05-06 17:15 | 36.68682 | -4.49765 | 48 ft | 77 kts | 116° |
| 2026-05-06 17:16 | 36.68543 | -4.49473 | 48 ft | 22 kts | 129° |
| 2026-05-06 17:16 | 36.68470 | -4.49386 | 46 ft | 22 kts | 149° |
| 2026-05-06 17:16 | 36.68371 | -4.49303 | 42 ft | 18 kts | 147° |
| 2026-05-06 17:16 | 36.68268 | -4.49343 | 40 ft | 18 kts | 229° |
| 2026-05-06 17:17 | 36.68170 | -4.49433 | 42 ft | 17 kts | 216° |
| 2026-05-06 17:17 | 36.68088 | -4.49533 | 42 ft | 17 kts | 222° |
| 2026-05-06 17:17 | 36.67996 | -4.49634 | 42 ft | 18 kts | 221° |
| 2026-05-06 17:17 | 36.67896 | -4.49745 | 42 ft | 20 kts | 222° |
| 2026-05-06 17:18 | 36.67804 | -4.49803 | 42 ft | 11 kts | 131° |
| 2026-05-06 17:18 | 36.67748 | -4.49727 | 42 ft | 13 kts | 133° |
| 2026-05-06 17:18 | 36.67684 | -4.49637 | 42 ft | 15 kts | 131° |
| 2026-05-06 17:18 | 36.67604 | -4.49525 | 42 ft | 18 kts | 131° |
| 2026-05-06 17:19 | 36.67599 | -4.49456 | 40 ft | 8 kts | 39° |
| 2026-05-06 17:19 | 36.67632 | -4.49421 | 42 ft | 2 kts | 42° |
| 2026-05-06 17:19 | 36.67634 | -4.49419 | 42 ft | 0 kts | 42° |